Mc Alester Regional Airport Mc Alester US
ICAO: KMLC
IATA: MLC
Category: Medium
Scheduled Services: No

Elevation: 770 ft
TransAlt. 18000 ft.

Airport Communications:
ASOS:135.125
FORT WORTH CNTR:132.2
RDO:122.65
CTAF/UNICOM:122.95

KMLC Zoom In..

Runways:

(A) RW 02 length 5602 ft width 100 ft
LOC 108.30 / hdg 14

(B) RW 20 length 5602 ft width 100 ft
LOC 108.30 / hdg 194

Location; KMLC
Day. 23 / Time. 14.53 Zulu
* Altimeter: 30.24
* Temperature: 02° c. 35.6°f.
* Wind from: 330° Speed 06 kn.
Dewpoint: -06° c.
Visibility: 10 Statute Miles.
Clouds: Scattered 1000 ft.

KMLC 231453Z AUTO 33006KT 10SM SCT100 02/M06 A3024 RMK AO2 SLP243 T00171056 51028


Wind From 330°
Speed 06 kn.

YouTube Music Video
 
jpsmedia.com for Web Design  worldairports.se 2018   terms of use